sensor_id;sensor_type;location;lat;lon;timestamp;pressure;altitude;pressure_sealevel;temperature;humidity
15558;BME280;7880;50.110;9.372;2022-11-11T00:04:28;4.371258638991276;;;4.25;100.0
15558;BME280;7880;50.110;9.372;2022-11-11T00:09:31;4.300671409914503;;;4.312;100.0
15558;BME280;7880;50.110;9.372;2022-11-11T00:14:35;4.295629467163235;;;4.312;100.0
15558;BME280;7880;50.110;9.372;2022-11-11T00:26:33;4.230084237881238;;;4.062;100.0
15558;BME280;7880;50.110;9.372;2022-11-11T00:31:34;4.320839183829958;;;4.25;100.0
15558;BME280;7880;50.110;9.372;2022-11-11T00:36:38;4.053616557363421;;;4.062;100.0
15558;BME280;7880;50.110;9.372;2022-11-11T00:41:42;4.1141197219491;;;4.0;100.0
15558;BME280;7880;50.110;9.372;2022-11-11T00:53:40;4.139329386228928;;;4.0;100.0
15558;BME280;7880;50.110;9.372;2022-11-11T00:58:48;4.05865848614485;;;3.937;100.0
15558;BME280;7880;50.110;9.372;2022-11-11T01:03:48;4.154455188289285;;;4.062;100.0
15558;BME280;7880;50.110;9.372;2022-11-11T01:08:52;4.10907778996625;;;4.0;100.0
15558;BME280;7880;50.110;9.372;2022-11-11T01:13:55;4.139329386228928;;;4.062;100.0
15558;BME280;7880;50.110;9.372;2022-11-11T01:18:58;4.144371319958009;;;4.062;100.0
15558;BME280;7880;50.110;9.372;2022-11-11T01:24:02;4.008239211427281;;;4.0;100.0
15558;BME280;7880;50.110;9.372;2022-11-11T01:29:07;3.9477361201832535;;;4.0;100.0
15558;BME280;7880;50.110;9.372;2022-11-11T01:34:12;3.9477361201832535;;;3.937;100.0
15558;BME280;7880;50.110;9.372;2022-11-11T01:39:16;3.9527780428528785;;;3.937;100.0
15558;BME280;7880;50.110;9.372;2022-11-11T01:44:41;3.937652275717119;;;3.812;100.0
15558;BME280;7880;50.110;9.372;2022-11-11T01:49:26;4.053616557363421;;;4.0;100.0
15558;BME280;7880;50.110;9.372;2022-11-11T01:54:29;4.0485746288730295;;;4.062;100.0
15558;BME280;7880;50.110;9.372;2022-11-11T01:59:27;4.018323064042488;;;4.0;100.0
15558;BME280;7880;50.110;9.372;2022-11-11T02:05:42;3.7359756308665966;;;3.812;100.0
15558;BME280;7880;50.110;9.372;2022-11-11T02:10:23;3.902358829253353;;;3.75;100.0
15558;BME280;7880;50.110;9.372;2022-11-11T02:15:26;3.8116043181158603;;;3.75;100.0
15558;BME280;7880;50.110;9.372;2022-11-11T02:20:31;3.836813895084197;;;3.75;100.0
15558;BME280;7880;50.110;9.372;2022-11-11T02:25:36;3.8721073150634764;;;3.75;100.0
15558;BME280;7880;50.110;9.372;2022-11-11T02:30:39;3.892274990025908;;;3.875;100.0
15558;BME280;7880;50.110;9.372;2022-11-11T02:42:34;3.8015204893657937;;;3.562;100.0
15558;BME280;7880;50.110;9.372;2022-11-11T02:47:36;3.806562403595308;;;3.687;100.0
15558;BME280;7880;50.110;9.372;2022-11-11T02:52:44;3.7712690101005135;;;3.687;100.0
15558;BME280;7880;50.110;9.372;2022-11-11T02:57:44;3.5242156549415085;;;3.5;100.0
15558;BME280;7880;50.110;9.372;2022-11-11T03:02:47;3.5948022565396966;;;3.5;100.0
15558;BME280;7880;50.110;9.372;2022-11-11T03:07:51;3.6401793876895683;;;3.5;100.0
15558;BME280;7880;50.110;9.372;2022-11-11T03:12:55;3.650263197813183;;;3.562;100.0
15558;BME280;7880;50.110;9.372;2022-11-11T03:17:58;3.650263197813183;;;3.562;100.0
15558;BME280;7880;50.110;9.372;2022-11-11T03:23:08;3.5746346502623054;;;3.5;100.0
15558;BME280;7880;50.110;9.372;2022-11-11T03:28:07;3.5746346502623054;;;3.5;100.0
15558;BME280;7880;50.110;9.372;2022-11-11T03:33:10;3.6805146351689473;;;3.562;100.0
15558;BME280;7880;50.110;9.372;2022-11-11T03:38:15;3.393126403313363;;;3.375;100.0
15558;BME280;7880;50.110;9.372;2022-11-11T03:43:19;3.5393413504818456;;;3.437;100.0
15558;BME280;7880;50.110;9.372;2022-11-11T03:48:25;3.56455084886984;;;3.562;100.0
15558;BME280;7880;50.110;9.372;2022-11-11T03:51:49;3.48892237553373;;;3.562;100.0
15558;BME280;7880;50.110;9.372;2022-11-11T03:57:29;3.554467048641527;;;3.5;100.0
15558;BME280;7880;50.110;9.372;2022-11-11T04:10:32;3.4788385840365663;;;3.375;100.0
15558;BME280;7880;50.110;9.372;2022-11-11T04:16:16;3.393126403313363;;;3.312;100.0
15558;BME280;7880;50.110;9.372;2022-11-11T04:22:01;3.2620373484271115;;;3.187;100.0
15558;BME280;7880;50.110;9.372;2022-11-11T04:26:44;3.3074143067002297;;;3.25;100.0
15558;BME280;7880;50.110;9.372;2022-11-11T04:32:34;3.322539964696625;;;3.25;100.0
15558;BME280;7880;50.110;9.372;2022-11-11T04:37:15;3.2771629985654727;;;3.187;100.0
15558;BME280;7880;50.110;9.372;2022-11-11T04:42:17;3.31245619240799;;;3.25;100.0
15558;BME280;7880;50.110;9.372;2022-11-11T04:47:20;3.3679169544018803;;;3.375;100.0
15558;BME280;7880;50.110;9.372;2022-11-11T04:52:26;3.2116185335500633;;;3.25;100.0
15558;BME280;7880;50.110;9.372;2022-11-11T04:57:28;3.3729588436021003;;;3.375;100.0
15558;BME280;7880;50.110;9.372;2022-11-11T05:03:35;3.3527912885474507;;;3.312;100.0
15558;BME280;7880;50.110;9.372;2022-11-11T05:09:20;3.3427075127663555;;;3.312;100.0
15558;BME280;7880;50.110;9.372;2022-11-11T05:21:27;3.146074117720127;;;3.062;100.0
15558;BME280;7880;50.110;9.372;2022-11-11T05:26:12;3.2771629985654727;;;3.187;100.0
15558;BME280;7880;50.110;9.372;2022-11-11T05:31:11;3.2670792315155266;;;3.187;100.0
15558;BME280;7880;50.110;9.372;2022-11-11T05:36:15;3.282204882527003;;;3.25;100.0
15558;BME280;7880;50.110;9.372;2022-11-11T05:41:18;3.347749400511384;;;3.312;100.0
15558;BME280;7880;50.110;9.372;2022-11-11T05:46:22;3.347749400511384;;;3.312;100.0
15558;BME280;7880;50.110;9.372;2022-11-11T05:51:30;3.3376656253123658;;;3.375;100.0
15558;BME280;7880;50.110;9.372;2022-11-11T05:56:28;3.251953583123395;;;3.187;100.0
15558;BME280;7880;50.110;9.372;2022-11-11T06:01:32;3.282204882527003;;;3.312;100.0
15558;BME280;7880;50.110;9.372;2022-11-11T06:06:35;3.1107809911074584;;;3.125;100.0
15558;BME280;7880;50.110;9.372;2022-11-11T06:11:42;3.1561578708002345;;;3.062;100.0
15558;BME280;7880;50.110;9.372;2022-11-11T06:16:44;3.287246766779572;;;3.187;100.0
15558;BME280;7880;50.110;9.372;2022-11-11T06:22:04;3.282204882527003;;;3.25;100.0
15558;BME280;7880;50.110;9.372;2022-11-11T06:27:01;3.1964928947621956;;;3.125;100.0
15558;BME280;7880;50.110;9.372;2022-11-11T06:31:56;3.1410322416166307;;;3.125;100.0
15558;BME280;7880;50.110;9.372;2022-11-11T06:36:59;3.1712835026031825;;;3.125;100.0
15558;BME280;7880;50.110;9.372;2022-11-11T06:42:02;2.9242318444885314;;;2.937;100.0
15558;BME280;7880;50.110;9.372;2022-11-11T06:47:05;3.095655369781889;;;3.0;100.0
15558;BME280;7880;50.110;9.372;2022-11-11T06:52:09;3.241869818983832;;;3.125;100.0
15558;BME280;7880;50.110;9.372;2022-11-11T06:57:13;3.0553203923860566;;;3.125;100.0
15558;BME280;7880;50.110;9.372;2022-11-11T07:02:17;3.2620373484271115;;;3.25;100.0
15558;BME280;7880;50.110;9.372;2022-11-11T07:07:21;3.2166604137280954;;;3.312;100.0
15558;BME280;7880;50.110;9.372;2022-11-11T07:12:25;3.181367258593673;;;3.25;100.0
15558;BME280;7880;50.110;9.372;2022-11-11T07:17:29;3.0704460067267063;;;3.125;100.0
15558;BME280;7880;50.110;9.372;2022-11-11T07:22:35;3.347749400511384;;;3.375;100.0
15558;BME280;7880;50.110;9.372;2022-11-11T07:27:36;3.403210184915224;;;3.437;100.0
15558;BME280;7880;50.110;9.372;2022-11-11T07:32:43;3.423377751611406;;;3.437;100.0
15558;BME280;7880;50.110;9.372;2022-11-11T07:37:44;3.3729588436021003;;;3.375;100.0
15558;BME280;7880;50.110;9.372;2022-11-11T07:42:47;3.483880479639629;;;3.5;100.0
15558;BME280;7880;50.110;9.372;2022-11-11T07:47:54;3.6805146351689473;;;3.75;100.0
15558;BME280;7880;50.110;9.372;2022-11-11T07:52:55;3.816646232927451;;;3.937;100.0
15558;BME280;7880;50.110;9.372;2022-11-11T07:58:03;3.776310922583798;;;3.937;100.0
15558;BME280;7880;50.110;9.372;2022-11-11T08:03:04;3.877149233367527;;;4.0;100.0
15558;BME280;7880;50.110;9.372;2022-11-11T08:08:13;4.15949712289148;;;4.25;100.0
15558;BME280;7880;50.110;9.372;2022-11-11T08:13:50;4.290587524703005;;;4.5;100.0
15558;BME280;7880;50.110;9.372;2022-11-11T08:18:30;4.366216692165471;;;4.562;100.0
15558;BME280;7880;50.110;9.372;2022-11-11T08:23:33;4.562852834031219;;;4.687;100.0
15558;BME280;7880;50.110;9.372;2022-11-11T08:28:36;4.668734016851522;;;4.875;100.0
15558;BME280;7880;50.110;9.372;2022-11-11T08:33:41;4.814951099368045;;;5.0;100.0
15558;BME280;7880;50.110;9.372;2022-11-11T08:38:54;4.925874566618586;;;5.125;100.0
15558;BME280;7880;50.110;9.372;2022-11-11T08:43:51;5.167889893200481;;;5.25;100.0
15558;BME280;7880;50.110;9.372;2022-11-11T08:48:52;5.349401828186819;;;5.5;100.0
15558;BME280;7880;50.110;9.372;2022-11-11T08:53:56;5.576292277337052;;;5.75;100.0
15558;BME280;7880;50.110;9.372;2022-11-11T08:59:03;5.808225345611572;;;5.937;100.0
15558;BME280;7880;50.110;9.372;2022-11-11T09:04:00;5.9443602594605185;;;6.125;100.0
15558;BME280;7880;50.110;9.372;2022-11-11T09:09:06;7.552785117947496;;;7.375;100.0
15558;BME280;7880;50.110;9.372;2022-11-11T09:14:10;6.59982762951986;;;6.937;100.0
15558;BME280;7880;50.110;9.372;2022-11-11T09:19:11;6.715795445535332;;;6.875;100.0
15558;BME280;7880;50.110;9.372;2022-11-11T09:24:15;6.746047944598831;;;6.937;100.0
15558;BME280;7880;50.110;9.372;2022-11-11T09:29:18;6.771258368488634;;;7.0;100.0
15558;BME280;7880;50.110;9.372;2022-11-11T09:34:24;6.8922685044410175;;;7.125;100.0
15558;BME280;7880;50.110;9.372;2022-11-11T09:39:29;7.05865771509707;;;7.25;100.0
15558;BME280;7880;50.110;9.372;2022-11-11T09:44:43;7.396479208680103;;;7.5;100.0
15558;BME280;7880;50.110;9.372;2022-11-11T09:49:55;7.487237444525817;;;7.687;100.0
15558;BME280;7880;50.110;9.372;2022-11-11T09:54:51;7.608248572336743;;;7.812;100.0
15558;BME280;7880;50.110;9.372;2022-11-11T09:59:46;7.794807722815312;;;8.0;100.0
15558;BME280;7880;50.110;9.372;2022-11-11T10:04:55;8.051957475213566;;;8.25;100.0
15558;BME280;7880;50.110;9.372;2022-11-11T10:09:56;8.36961409682408;;;8.437;100.0
15558;BME280;7880;50.110;9.372;2022-11-11T10:14:56;8.566259250981966;;;8.75;100.0
15558;BME280;7880;50.110;9.372;2022-11-11T10:20:06;8.662060896703043;;;8.875;100.0
15558;BME280;7880;50.110;9.372;2022-11-11T10:25:13;8.838537887536223;;;9.0;100.0
15558;BME280;7880;50.110;9.372;2022-11-11T10:30:16;8.899044366466114;;;9.125;100.0
15558;BME280;7880;50.110;9.372;2022-11-11T10:35:15;9.292337501054863;;;9.437;100.0
15558;BME280;7880;50.110;9.372;2022-11-11T10:40:19;9.448646802664735;;;9.625;100.0
15558;BME280;7880;50.110;9.372;2022-11-11T10:45:29;9.756223987002159;;;9.937;100.0
15558;BME280;7880;50.110;9.372;2022-11-11T10:50:35;9.927660920430208;;;10.125;100.0
15558;BME280;7880;50.110;9.372;2022-11-11T10:55:34;9.947829993540655;;;10.25;100.0
15558;BME280;7880;50.110;9.372;2022-11-11T11:00:34;10.07388680598233;;;10.312;100.0
15558;BME280;7880;50.110;9.372;2022-11-11T11:05:43;10.240282076928997;;;10.5;100.0
15558;BME280;7880;50.110;9.372;2022-11-11T11:10:51;10.426846848521382;;;10.625;100.0
15558;BME280;7880;50.110;9.372;2022-11-11T11:15:56;10.663835105864564;;;10.875;100.0
15558;BME280;7880;50.110;9.372;2022-11-11T11:20:59;10.63358124998049;;;10.875;100.0
15558;BME280;7880;50.110;9.372;2022-11-11T11:25:55;10.598285098024643;;;10.812;100.0
15558;BME280;7880;50.110;9.372;2022-11-11T11:31:03;10.855443103105063;;;11.062;100.0
15558;BME280;7880;50.110;9.372;2022-11-11T11:36:14;10.794935269100824;;;11.062;100.0
15558;BME280;7880;50.110;9.372;2022-11-11T11:41:06;11.05209385305643;;;11.25;100.0
15558;BME280;7880;50.110;9.372;2022-11-11T11:46:18;10.966374240961159;;;11.25;100.0
15558;BME280;7880;50.110;9.372;2022-11-11T11:51:29;11.077305519679793;;;11.312;100.0
15558;BME280;7880;50.110;9.372;2022-11-11T11:56:33;11.344549633213319;;;11.5;100.0
15558;BME280;7880;50.110;9.372;2022-11-11T12:01:36;11.39497314253822;;;11.625;100.0
15558;BME280;7880;50.110;9.372;2022-11-11T12:06:41;11.334464934840799;;;11.562;100.0
15558;BME280;7880;50.110;9.372;2022-11-11T12:11:42;11.294126152992249;;;11.5;100.0
15558;BME280;7880;50.110;9.372;2022-11-11T12:16:45;11.314295541588217;;;11.5;100.0
15558;BME280;7880;50.110;9.372;2022-11-11T12:21:57;11.25378738977015;;;11.5;100.0
15558;BME280;7880;50.110;9.372;2022-11-11T12:27:04;11.163025240623393;;;11.375;100.0
15558;BME280;7880;50.110;9.372;2022-11-11T12:32:06;11.278999114601174;;;11.437;100.0
15558;BME280;7880;50.110;9.372;2022-11-11T12:37:06;11.112601865176112;;;11.5;100.0
15558;BME280;7880;50.110;9.372;2022-11-11T12:42:10;11.334464934840799;;;11.5;100.0
15558;BME280;7880;50.110;9.372;2022-11-11T12:47:23;11.329422586091095;;;11.562;100.0
15558;BME280;7880;50.110;9.372;2022-11-11T12:52:22;11.289083806570853;;;11.5;100.0
15558;BME280;7880;50.110;9.372;2022-11-11T12:57:21;11.127728874754393;;;11.375;100.0
15558;BME280;7880;50.110;9.372;2022-11-11T13:02:36;11.24874504567706;;;11.437;100.0
15558;BME280;7880;50.110;9.372;2022-11-11T13:07:37;11.087390188366408;;;11.375;100.0
15558;BME280;7880;50.110;9.372;2022-11-11T13:12:30;11.157982901768992;;;11.375;100.0
15558;BME280;7880;50.110;9.372;2022-11-11T13:17:33;11.24874504567706;;;11.375;100.0
15558;BME280;7880;50.110;9.372;2022-11-11T13:22:37;11.32438023763243;;;11.437;100.0
15558;BME280;7880;50.110;9.372;2022-11-11T13:27:47;11.415142554417253;;;11.562;100.0
15558;BME280;7880;50.110;9.372;2022-11-11T13:32:48;11.450439036410534;;;11.625;100.0
15558;BME280;7880;50.110;9.372;2022-11-11T13:37:50;11.480693175183841;;;11.687;100.0
15558;BME280;7880;50.110;9.372;2022-11-11T13:42:55;11.490777890436584;;;11.687;100.0
15558;BME280;7880;50.110;9.372;2022-11-11T13:48:01;11.485735532664695;;;11.625;100.0
15558;BME280;7880;50.110;9.372;2022-11-11T13:53:13;11.480693175183841;;;11.625;100.0
15558;BME280;7880;50.110;9.372;2022-11-11T13:58:21;11.389930790296058;;;11.625;100.0
15558;BME280;7880;50.110;9.372;2022-11-11T14:03:35;11.60170983505086;;;11.75;100.0
15558;BME280;7880;50.110;9.372;2022-11-11T14:08:59;11.495820248499513;;;11.75;100.0
15558;BME280;7880;50.110;9.372;2022-11-11T14:13:40;11.56137092980207;;;11.75;100.0
15558;BME280;7880;50.110;9.372;2022-11-11T14:18:45;11.546243845135905;;;11.75;100.0
15558;BME280;7880;50.110;9.372;2022-11-11T14:23:52;11.39497314253822;;;11.687;100.0
15558;BME280;7880;50.110;9.372;2022-11-11T14:28:57;11.51598968366161;;;11.687;100.0
15558;BME280;7880;50.110;9.372;2022-11-11T14:34:02;11.284041460440495;;;11.5;100.0
15558;BME280;7880;50.110;9.372;2022-11-11T14:39:11;11.213448645174504;;;11.437;100.0
15558;BME280;7880;50.110;9.372;2022-11-11T14:44:38;11.077305519679793;;;11.312;100.0
15558;BME280;7880;50.110;9.372;2022-11-11T14:49:44;10.910908654425294;;;11.125;100.0
15558;BME280;7880;50.110;9.372;2022-11-11T14:54:35;10.82014686150942;;;11.0;100.0
15558;BME280;7880;50.110;9.372;2022-11-11T14:59:37;10.64366586744436;;;10.812;100.0
15558;BME280;7880;50.110;9.372;2022-11-11T15:04:36;10.55290435217903;;;10.687;100.0
15558;BME280;7880;50.110;9.372;2022-11-11T15:10:57;10.396593074710108;;;10.562;100.0
15558;BME280;7880;50.110;9.372;2022-11-11T15:15:58;10.189859234081814;;;10.25;100.0
15558;BME280;7880;50.110;9.372;2022-11-11T15:20:56;10.043633154407143;;;10.125;100.0
15558;BME280;7880;50.110;9.372;2022-11-11T15:25:52;9.77135076171253;;;9.812;100.0
15558;BME280;7880;50.110;9.372;2022-11-11T15:31:00;9.715885933913523;;;9.687;100.0
15558;BME280;7880;50.110;9.372;2022-11-11T15:36:00;9.625125382567058;;;9.562;100.0
15558;BME280;7880;50.110;9.372;2022-11-11T15:41:01;9.488984732353128;;;9.437;100.0
15558;BME280;7880;50.110;9.372;2022-11-11T15:46:04;9.383097706647822;;;9.375;100.0
15558;BME280;7880;50.110;9.372;2022-11-11T15:51:16;9.282253039587522;;;9.25;100.0
15558;BME280;7880;50.110;9.372;2022-11-11T15:56:27;9.090648492897163;;;9.062;100.0
15558;BME280;7880;50.110;9.372;2022-11-11T16:01:16;9.040226313617314;;;9.0;100.0
15558;BME280;7880;50.110;9.372;2022-11-11T16:06:34;8.97971973689855;;;8.937;100.0
15558;BME280;7880;50.110;9.372;2022-11-11T16:11:23;8.838537887536223;;;8.75;100.0
15558;BME280;7880;50.110;9.372;2022-11-11T16:16:38;8.818369070539484;;;8.812;100.0
15558;BME280;7880;50.110;9.372;2022-11-11T16:21:41;8.651976507995277;;;8.625;100.0
15558;BME280;7880;50.110;9.372;2022-11-11T16:26:38;8.50575300255441;;;8.437;100.0
15558;BME280;7880;50.110;9.372;2022-11-11T16:31:50;8.480542078078724;;;8.375;100.0
15558;BME280;7880;50.110;9.372;2022-11-11T16:37:05;8.354487564839655;;;8.25;100.0
15558;BME280;7880;50.110;9.372;2022-11-11T16:41:52;8.072126115259016;;;8.0;100.0
15558;BME280;7880;50.110;9.372;2022-11-11T16:47:04;8.026746681705117;;;7.875;100.0
15558;BME280;7880;50.110;9.372;2022-11-11T16:52:07;7.991451583016897;;;7.875;100.0
15558;BME280;7880;50.110;9.372;2022-11-11T16:57:04;7.951114344835514;;;7.812;100.0
15558;BME280;7880;50.110;9.372;2022-11-11T17:02:18;8.102379084058338;;;7.875;100.0
15558;BME280;7880;50.110;9.372;2022-11-11T17:07:27;7.8149763034889475;;;7.687;100.0
15558;BME280;7880;50.110;9.372;2022-11-11T17:12:28;7.492279571504332;;;7.375;100.0
15558;BME280;7880;50.110;9.372;2022-11-11T17:17:21;7.436816190747777;;;7.25;100.0
15558;BME280;7880;50.110;9.372;2022-11-11T17:22:25;7.416647697385633;;;7.25;100.0
15558;BME280;7880;50.110;9.372;2022-11-11T17:27:30;7.315805300424108;;;7.187;100.0
15558;BME280;7880;50.110;9.372;2022-11-11T17:32:35;7.240173579100519;;;7.125;100.0
15558;BME280;7880;50.110;9.372;2022-11-11T17:37:40;7.05865771509707;;;6.875;100.0
15558;BME280;7880;50.110;9.372;2022-11-11T17:42:45;6.937647348642349;;;6.812;100.0
15558;BME280;7880;50.110;9.372;2022-11-11T17:48:01;6.917478970531374;;;6.75;100.0
15558;BME280;7880;50.110;9.372;2022-11-11T17:52:55;6.9023526900040455;;;6.75;100.0
15558;BME280;7880;50.110;9.372;2022-11-11T17:58:02;6.710753363376716;;;6.5;100.0
15558;BME280;7880;50.110;9.372;2022-11-11T18:03:03;6.725879610725679;;;6.562;100.0
15558;BME280;7880;50.110;9.372;2022-11-11T18:08:06;6.766216283128597;;;6.562;100.0
15558;BME280;7880;50.110;9.372;2022-11-11T18:13:14;6.7006691999326;;;6.562;100.0
15558;BME280;7880;50.110;9.372;2022-11-11T18:18:15;6.488902036525542;;;6.375;100.0
15558;BME280;7880;50.110;9.372;2022-11-11T18:23:21;6.448565492179478;;;6.375;100.0
15558;BME280;7880;50.110;9.372;2022-11-11T18:28:28;6.398144837940345;;;6.25;100.0
15558;BME280;7880;50.110;9.372;2022-11-11T18:33:36;6.3527662740089;;;6.25;100.0
15558;BME280;7880;50.110;9.372;2022-11-11T18:38:35;6.241840994753875;;;6.062;100.0
15558;BME280;7880;50.110;9.372;2022-11-11T18:43:41;6.166210203297669;;;6.0;100.0
15558;BME280;7880;50.110;9.372;2022-11-11T18:48:43;6.176294305041665;;;6.0;100.0
15558;BME280;7880;50.110;9.372;2022-11-11T18:53:48;6.176294305041665;;;5.937;100.0
15558;BME280;7880;50.110;9.372;2022-11-11T18:58:55;6.025032901117811;;;5.937;100.0
15558;BME280;7880;50.110;9.372;2022-11-11T19:03:58;6.040159029723145;;;5.937;100.0
15558;BME280;7880;50.110;9.372;2022-11-11T19:09:03;5.974612491350854;;;5.875;100.0
15558;BME280;7880;50.110;9.372;2022-11-11T19:12:22;5.994780651765177;;;5.875;100.0
15558;BME280;7880;50.110;9.372;2022-11-11T19:17:26;5.909066002164036;;;5.812;100.0
15558;BME280;7880;50.110;9.372;2022-11-11T19:22:32;5.823351436672965;;;5.625;100.0
15558;BME280;7880;50.110;9.372;2022-11-11T19:27:35;5.7830151996633505;;;5.625;100.0
15558;BME280;7880;50.110;9.372;2022-11-11T19:32:40;5.540998168761144;;;5.437;100.0
15558;BME280;7880;50.110;9.372;2022-11-11T19:37:46;5.556124213547446;;;5.375;100.0
15558;BME280;7880;50.110;9.372;2022-11-11T19:42:51;5.490578038390959;;;5.437;100.0
15558;BME280;7880;50.110;9.372;2022-11-11T19:47:53;5.304023809079081;;;5.187;100.0
15558;BME280;7880;50.110;9.372;2022-11-11T19:53:04;5.364527839794755;;;5.125;100.0
15558;BME280;7880;50.110;9.372;2022-11-11T19:58:00;5.2888978079485245;;;5.187;100.0
15558;BME280;7880;50.110;9.372;2022-11-11T20:03:07;5.238477823097492;;;5.062;100.0
15558;BME280;7880;50.110;9.372;2022-11-11T20:08:10;5.283855808153748;;;5.062;100.0
15558;BME280;7880;50.110;9.372;2022-11-11T20:13:15;5.092260031611659;;;4.875;100.0
15558;BME280;7880;50.110;9.372;2022-11-11T20:18:19;5.102344009373337;;;4.937;100.0
15558;BME280;7880;50.110;9.372;2022-11-11T20:23:23;4.9712523892754685;;;4.75;100.0
15558;BME280;7880;50.110;9.372;2022-11-11T20:28:31;4.840160965919495;;;4.562;100.0
15558;BME280;7880;50.110;9.372;2022-11-11T20:33:33;4.789741240092553;;;4.562;100.0
15558;BME280;7880;50.110;9.372;2022-11-11T20:38:42;4.8300770184258;;;4.625;100.0
15558;BME280;7880;50.110;9.372;2022-11-11T20:43:43;4.754447449330473;;;4.562;100.0
15558;BME280;7880;50.110;9.372;2022-11-11T20:48:48;4.754447449330473;;;4.625;100.0
15558;BME280;7880;50.110;9.372;2022-11-11T20:53:54;4.724195640027756;;;4.562;100.0
15558;BME280;7880;50.110;9.372;2022-11-11T20:59:02;4.633440274983878;;;4.437;100.0
15558;BME280;7880;50.110;9.372;2022-11-11T21:04:01;4.577978709433228;;;4.437;100.0
15558;BME280;7880;50.110;9.372;2022-11-11T21:09:05;4.567894792207516;;;4.375;100.0
15558;BME280;7880;50.110;9.372;2022-11-11T21:14:23;4.391426429204875;;;4.312;100.0
15558;BME280;7880;50.110;9.372;2022-11-11T21:19:14;4.552768918551737;;;4.437;100.0
15558;BME280;7880;50.110;9.372;2022-11-11T21:24:18;4.411594224075088;;;4.312;100.0
15558;BME280;7880;50.110;9.372;2022-11-11T21:29:24;4.406552274920978;;;4.25;100.0
15558;BME280;7880;50.110;9.372;2022-11-11T21:34:26;4.3057133529568095;;;4.187;100.0
15558;BME280;7880;50.110;9.372;2022-11-11T21:39:37;4.098993926873663;;;4.0;100.0
15558;BME280;7880;50.110;9.372;2022-11-11T21:44:35;3.993113434687257;;;3.937;100.0
15558;BME280;7880;50.110;9.372;2022-11-11T21:49:40;3.9628618890652434;;;3.875;100.0
15558;BME280;7880;50.110;9.372;2022-11-11T21:54:46;3.9830295849824324;;;3.812;100.0
15558;BME280;7880;50.110;9.372;2022-11-11T21:59:51;3.9679038126079833;;;3.812;100.0
15558;BME280;7880;50.110;9.372;2022-11-11T22:05:04;3.9981553599762263;;;3.937;100.0
15558;BME280;7880;50.110;9.372;2022-11-11T22:10:01;3.9779876605665776;;;3.937;100.0
15558;BME280;7880;50.110;9.372;2022-11-11T22:15:11;3.9779876605665776;;;3.875;100.0
15558;BME280;7880;50.110;9.372;2022-11-11T22:20:16;3.8821911519626155;;;3.812;100.0
15558;BME280;7880;50.110;9.372;2022-11-11T22:25:18;3.9628618890652434;;;3.875;100.0
15558;BME280;7880;50.110;9.372;2022-11-11T22:30:25;3.9326103539206088;;;3.812;100.0
15558;BME280;7880;50.110;9.372;2022-11-11T22:35:30;3.8569815618975554;;;3.625;100.0
15558;BME280;7880;50.110;9.372;2022-11-11T22:40:30;3.826730063423747;;;3.687;100.0
15558;BME280;7880;50.110;9.372;2022-11-11T22:45:34;3.685556542413542;;;3.5;100.0
15558;BME280;7880;50.110;9.372;2022-11-11T22:50:43;3.76118518600706;;;3.625;100.0
15558;BME280;7880;50.110;9.372;2022-11-11T22:55:43;3.705724174302304;;;3.562;100.0
15558;BME280;7880;50.110;9.372;2022-11-11T23:00:47;3.7410175413126128;;;3.625;100.0
15558;BME280;7880;50.110;9.372;2022-11-11T23:05:51;3.6956403577758463;;;3.625;100.0
15558;BME280;7880;50.110;9.372;2022-11-11T23:11:02;3.6452212926058563;;;3.5;100.0
15558;BME280;7880;50.110;9.372;2022-11-11T23:16:00;3.746059452049667;;;3.562;100.0
15558;BME280;7880;50.110;9.372;2022-11-11T23:21:06;3.579676551395096;;;3.5;100.0
15558;BME280;7880;50.110;9.372;2022-11-11T23:26:08;3.7107660830020905;;;3.562;100.0
15558;BME280;7880;50.110;9.372;2022-11-11T23:31:14;3.8216881480300797;;;3.687;100.0
15558;BME280;7880;50.110;9.372;2022-11-11T23:36:18;3.806562403595308;;;3.687;100.0
15558;BME280;7880;50.110;9.372;2022-11-11T23:41:24;3.8216881480300797;;;3.812;100.0
15558;BME280;7880;50.110;9.372;2022-11-11T23:46:26;3.892274990025908;;;3.875;100.0
15558;BME280;7880;50.110;9.372;2022-11-11T23:51:30;3.816646232927451;;;3.75;100.0
15558;BME280;7880;50.110;9.372;2022-11-11T23:56:35;3.972945736441761;;;3.937;100.0
